createdAt,value
2023-05-25T00:01:05.007Z,19.90
2023-05-25T00:03:32.557Z,19.90
2023-05-25T00:06:02.802Z,19.90
2023-05-25T00:08:30.177Z,19.90
2023-05-25T00:10:57.292Z,19.90
2023-05-25T00:13:24.402Z,19.90
2023-05-25T00:15:51.525Z,20.00
2023-05-25T00:18:18.751Z,20.00
2023-05-25T00:20:47.578Z,20.00
2023-05-25T00:23:14.950Z,20.00
2023-05-25T00:25:42.580Z,20.00
2023-05-25T00:28:11.259Z,20.10
2023-05-25T00:30:38.830Z,20.10
2023-05-25T00:33:06.692Z,20.10
2023-05-25T00:35:33.809Z,20.10
2023-05-25T00:38:00.810Z,20.10
2023-05-25T00:40:27.930Z,20.10
2023-05-25T00:42:56.132Z,20.10
2023-05-25T00:45:23.483Z,20.10
2023-05-25T00:47:54.365Z,20.20
2023-05-25T00:50:47.559Z,20.20
2023-05-25T00:53:14.904Z,20.20
2023-05-25T00:55:44.836Z,20.20
2023-05-25T00:58:16.779Z,20.20
2023-05-25T01:00:46.768Z,20.20
2023-05-25T01:03:17.774Z,20.20
2023-05-25T01:05:48.743Z,20.20
2023-05-25T01:08:19.006Z,20.20
2023-05-25T01:10:52.344Z,20.20
2023-05-25T01:13:20.992Z,20.20
2023-05-25T01:15:49.908Z,20.20
2023-05-25T01:18:18.081Z,20.20
2023-05-25T01:21:13.284Z,20.20
2023-05-25T01:24:13.709Z,20.10
2023-05-25T01:26:47.296Z,20.10
2023-05-25T01:29:17.256Z,20.10
2023-05-25T01:31:47.437Z,20.20
2023-05-25T01:34:16.015Z,20.10
2023-05-25T01:36:43.074Z,20.10
2023-05-25T01:39:11.197Z,20.10
2023-05-25T01:41:38.611Z,20.10
2023-05-25T01:44:07.812Z,20.10
2023-05-25T01:46:41.552Z,20.10
2023-05-25T01:49:44.968Z,20.10
2023-05-25T01:52:32.442Z,20.10
2023-05-25T01:55:18.640Z,20.10
2023-05-25T01:57:50.722Z,20.10
2023-05-25T02:00:21.376Z,20.10
2023-05-25T02:02:50.668Z,20.10
2023-05-25T02:05:20.872Z,20.10
2023-05-25T02:07:47.906Z,20.10
2023-05-25T02:10:15.000Z,20.10
2023-05-25T02:12:42.784Z,20.10
2023-05-25T02:15:10.810Z,20.10
2023-05-25T02:17:38.602Z,20.20
2023-05-25T02:20:06.994Z,20.20
2023-05-25T02:22:34.144Z,20.20
2023-05-25T02:25:01.136Z,20.20
2023-05-25T02:27:29.985Z,20.10
2023-05-25T02:29:56.954Z,20.10
2023-05-25T02:32:26.089Z,20.00
2023-05-25T02:34:53.093Z,20.00
2023-05-25T02:37:20.129Z,19.90
2023-05-25T02:39:48.317Z,19.90
2023-05-25T02:42:15.428Z,19.80
2023-05-25T02:44:48.321Z,19.80
2023-05-25T02:47:16.514Z,19.70
2023-05-25T02:49:44.078Z,19.70
2023-05-25T02:52:11.536Z,19.70
2023-05-25T02:54:39.101Z,19.70
2023-05-25T02:57:08.800Z,19.70
2023-05-25T02:59:36.136Z,19.60
2023-05-25T03:02:03.804Z,19.60
2023-05-25T03:04:33.982Z,19.60
2023-05-25T03:07:01.668Z,19.50
2023-05-25T03:09:29.241Z,19.50
2023-05-25T03:11:56.448Z,19.50
2023-05-25T03:14:24.621Z,19.40
2023-05-25T03:16:56.976Z,19.40
2023-05-25T03:19:24.727Z,19.40
2023-05-25T03:21:51.652Z,19.30
2023-05-25T03:24:19.637Z,19.30
2023-05-25T03:26:46.795Z,19.30
2023-05-25T03:29:14.964Z,19.20
2023-05-25T03:31:41.959Z,19.20
2023-05-25T03:34:09.149Z,19.10
2023-05-25T03:36:39.092Z,19.10
2023-05-25T03:39:07.176Z,19.00
2023-05-25T03:41:34.206Z,19.00
2023-05-25T03:44:01.149Z,19.00
2023-05-25T03:46:28.173Z,18.90
2023-05-25T03:48:57.584Z,18.90
2023-05-25T03:51:24.519Z,18.90
2023-05-25T03:53:51.477Z,18.80
2023-05-25T03:56:18.452Z,18.80
2023-05-25T03:58:45.537Z,18.80
2023-05-25T04:01:13.536Z,18.80
2023-05-25T04:03:41.007Z,18.80
2023-05-25T04:06:08.799Z,18.80
2023-05-25T04:08:35.850Z,18.80
2023-05-25T04:11:04.912Z,18.80
2023-05-25T04:13:35.807Z,18.80
2023-05-25T04:16:03.429Z,18.80
2023-05-25T04:18:33.465Z,18.80
2023-05-25T04:21:01.291Z,18.90
2023-05-25T04:23:28.313Z,18.90
2023-05-25T04:25:55.478Z,18.90
2023-05-25T04:28:22.959Z,18.90
2023-05-25T04:30:57.243Z,19.00
2023-05-25T04:33:56.793Z,19.00
2023-05-25T04:36:29.986Z,19.10
2023-05-25T04:38:57.798Z,19.10
2023-05-25T04:41:25.962Z,19.20
2023-05-25T04:44:09.003Z,19.20
2023-05-25T04:46:40.719Z,19.30
2023-05-25T04:49:13.349Z,19.30
2023-05-25T04:51:40.542Z,19.30
2023-05-25T04:54:08.029Z,19.30
2023-05-25T04:56:35.093Z,19.30
2023-05-25T04:59:04.463Z,19.40
2023-05-25T05:01:34.411Z,19.40
2023-05-25T05:04:03.245Z,19.40
2023-05-25T05:06:30.221Z,19.40
2023-05-25T05:08:58.208Z,19.40
2023-05-25T05:11:25.163Z,19.40
2023-05-25T05:13:53.562Z,19.40
2023-05-25T05:16:20.822Z,19.40
2023-05-25T05:18:48.251Z,19.40
2023-05-25T05:21:15.391Z,19.40
2023-05-25T05:23:46.527Z,19.40
2023-05-25T05:26:15.316Z,19.40
2023-05-25T05:28:42.486Z,19.50
2023-05-25T05:31:09.896Z,19.50
2023-05-25T05:33:36.815Z,19.50
2023-05-25T05:36:04.910Z,19.60
2023-05-25T05:38:32.279Z,19.60
2023-05-25T05:40:59.425Z,19.60
2023-05-25T05:43:27.312Z,19.70
2023-05-25T05:45:54.704Z,19.70
2023-05-25T05:48:21.686Z,19.80
2023-05-25T05:50:49.740Z,19.90
2023-05-25T05:53:18.177Z,19.90
2023-05-25T05:55:45.979Z,20.00
2023-05-25T05:58:13.965Z,20.10
2023-05-25T06:00:41.070Z,20.10
2023-05-25T06:03:08.148Z,20.10
2023-05-25T06:05:35.274Z,20.10
2023-05-25T06:08:05.660Z,20.10
2023-05-25T06:10:34.753Z,20.10
2023-05-25T06:13:01.875Z,20.20
2023-05-25T06:15:28.855Z,20.10
2023-05-25T06:17:58.919Z,20.10
2023-05-25T06:20:26.562Z,20.20
2023-05-25T06:22:53.865Z,20.20
2023-05-25T06:25:21.085Z,20.30
2023-05-25T06:27:48.216Z,20.30
2023-05-25T06:30:15.267Z,20.40
2023-05-25T06:32:43.426Z,20.40
2023-05-25T06:35:14.731Z,20.40
2023-05-25T06:37:41.726Z,20.50
2023-05-25T06:40:10.439Z,20.50
2023-05-25T06:42:38.086Z,20.60
2023-05-25T06:45:06.531Z,20.70
2023-05-25T06:47:33.528Z,20.80
2023-05-25T06:50:00.979Z,20.90
2023-05-25T06:52:31.836Z,21.00
2023-05-25T06:54:58.837Z,21.00
2023-05-25T06:57:25.876Z,21.00
2023-05-25T06:59:52.834Z,21.10
2023-05-25T07:02:20.999Z,21.20
2023-05-25T07:04:48.105Z,21.30
2023-05-25T07:07:15.317Z,21.50
2023-05-25T07:09:42.274Z,21.50
2023-05-25T07:12:11.085Z,21.60
2023-05-25T07:14:38.437Z,21.70
2023-05-25T07:17:05.697Z,21.80
2023-05-25T07:19:32.925Z,21.80
2023-05-25T07:21:59.989Z,21.80
2023-05-25T07:24:26.843Z,21.90
2023-05-25T07:26:53.809Z,21.90
2023-05-25T07:29:21.079Z,21.90
2023-05-25T07:31:48.260Z,22.00
2023-05-25T07:34:15.617Z,22.00
2023-05-25T07:36:42.652Z,22.00
2023-05-25T07:39:11.335Z,22.00
2023-05-25T07:41:39.164Z,22.00
2023-05-25T07:44:06.163Z,22.00
2023-05-25T07:46:33.252Z,22.00
2023-05-25T07:49:00.144Z,22.10
2023-05-25T07:51:30.197Z,22.00
2023-05-25T07:53:58.243Z,22.10
2023-05-25T07:56:26.596Z,22.10
2023-05-25T07:58:53.610Z,22.00
2023-05-25T08:01:20.588Z,21.90
2023-05-25T08:03:50.088Z,21.90
2023-05-25T08:06:17.699Z,21.90
2023-05-25T08:08:45.068Z,21.80
2023-05-25T08:11:12.065Z,21.80
2023-05-25T08:13:39.456Z,21.80
2023-05-25T08:16:06.534Z,21.80
2023-05-25T08:18:33.513Z,21.80
2023-05-25T08:21:01.147Z,21.90
2023-05-25T08:23:28.186Z,22.00
2023-05-25T08:25:55.167Z,22.20
2023-05-25T08:28:22.867Z,22.30
2023-05-25T08:30:49.989Z,22.40
2023-05-25T08:33:17.063Z,22.40
2023-05-25T08:35:44.252Z,22.50
2023-05-25T08:38:11.463Z,22.50
2023-05-25T08:40:42.217Z,22.40
2023-05-25T08:43:09.389Z,22.50
2023-05-25T08:45:39.476Z,22.60
2023-05-25T08:48:26.888Z,22.70
2023-05-25T08:51:08.132Z,22.80
2023-05-25T08:53:39.046Z,22.80
2023-05-25T08:56:30.451Z,22.80
2023-05-25T08:59:13.913Z,22.80
2023-05-25T09:01:46.050Z,22.80
2023-05-25T09:04:14.761Z,22.80
2023-05-25T09:06:41.871Z,22.70
2023-05-25T09:09:09.563Z,22.70
2023-05-25T09:11:39.963Z,22.60
2023-05-25T09:14:11.544Z,22.70
2023-05-25T09:16:39.012Z,22.80
2023-05-25T09:19:06.049Z,23.00
2023-05-25T09:21:33.094Z,23.10
2023-05-25T09:24:01.601Z,23.30
2023-05-25T09:26:28.930Z,23.50
2023-05-25T09:28:55.973Z,23.50
2023-05-25T09:31:24.900Z,23.50
2023-05-25T09:33:55.594Z,23.50
2023-05-25T09:36:23.390Z,23.60
2023-05-25T09:38:53.953Z,23.50
2023-05-25T09:41:21.958Z,23.50
2023-05-25T09:44:02.235Z,23.50
2023-05-25T09:46:39.000Z,23.30
2023-05-25T09:49:08.978Z,23.20
2023-05-25T09:51:37.050Z,23.00
2023-05-25T09:54:08.739Z,22.90
2023-05-25T09:56:36.420Z,23.00
2023-05-25T09:59:03.814Z,23.10
2023-05-25T10:01:33.496Z,23.00
2023-05-25T10:04:04.624Z,23.30
2023-05-25T10:06:33.808Z,23.60
2023-05-25T10:09:01.820Z,23.90
2023-05-25T10:11:29.653Z,24.20
2023-05-25T10:13:59.102Z,24.40
2023-05-25T10:16:29.588Z,24.60
2023-05-25T10:19:03.845Z,24.90
2023-05-25T10:21:31.775Z,25.20
2023-05-25T10:24:06.300Z,25.40
2023-05-25T10:26:40.741Z,25.60
2023-05-25T10:29:09.412Z,25.70
2023-05-25T10:31:37.739Z,25.90
2023-05-25T10:34:04.949Z,26.00
2023-05-25T10:36:34.335Z,26.20
2023-05-25T10:39:03.297Z,26.20
2023-05-25T10:41:30.386Z,26.30
2023-05-25T10:43:57.482Z,26.40
2023-05-25T10:46:24.587Z,26.30
2023-05-25T10:48:52.990Z,26.20
2023-05-25T10:51:21.009Z,26.20
2023-05-25T10:53:59.905Z,26.30
2023-05-25T10:56:26.884Z,26.30
2023-05-25T10:58:53.874Z,26.50
2023-05-25T11:01:21.289Z,26.60
2023-05-25T11:04:15.727Z,26.70
2023-05-25T11:06:46.082Z,26.70
2023-05-25T11:09:26.909Z,26.80
2023-05-25T11:11:55.634Z,26.90
2023-05-25T11:14:32.169Z,27.00
2023-05-25T11:17:12.907Z,27.10
2023-05-25T11:19:52.897Z,27.20
2023-05-25T11:22:21.438Z,27.20
2023-05-25T11:24:49.013Z,27.20
2023-05-25T11:27:16.089Z,27.20
2023-05-25T11:29:43.693Z,27.20
2023-05-25T11:32:14.699Z,27.30
2023-05-25T11:34:46.935Z,27.50
2023-05-25T11:37:17.460Z,27.50
2023-05-25T11:39:51.662Z,27.50
2023-05-25T11:42:22.957Z,27.60
2023-05-25T11:44:50.421Z,27.60
2023-05-25T11:47:22.778Z,27.60
2023-05-25T11:49:50.037Z,27.70
2023-05-25T11:52:19.146Z,27.70
2023-05-25T11:54:46.819Z,27.60
2023-05-25T11:57:20.620Z,27.40
2023-05-25T11:59:50.260Z,27.30
2023-05-25T12:02:17.641Z,27.40
2023-05-25T12:04:54.374Z,27.50
2023-05-25T12:07:21.491Z,27.70
2023-05-25T12:09:48.404Z,27.70
2023-05-25T12:12:15.790Z,27.50
2023-05-25T12:14:51.949Z,27.30
2023-05-25T12:17:21.695Z,27.00
2023-05-25T12:19:49.030Z,26.70
2023-05-25T12:22:16.517Z,26.50
2023-05-25T12:24:43.597Z,26.30
2023-05-25T12:27:21.101Z,26.30
2023-05-25T12:29:48.634Z,26.40
2023-05-25T12:32:16.031Z,26.50
2023-05-25T12:34:43.586Z,26.60
2023-05-25T12:37:22.974Z,26.80
2023-05-25T12:39:50.739Z,27.00
2023-05-25T12:42:18.349Z,27.20
2023-05-25T12:44:46.760Z,27.50
2023-05-25T12:47:23.128Z,27.60
2023-05-25T12:49:52.142Z,27.70
2023-05-25T12:52:33.184Z,27.80
2023-05-25T12:55:19.309Z,27.80
2023-05-25T12:57:55.706Z,27.80
2023-05-25T13:00:34.527Z,27.80
2023-05-25T13:03:02.374Z,27.80
2023-05-25T13:05:34.127Z,28.00
2023-05-25T13:08:03.063Z,27.90
2023-05-25T13:10:31.044Z,27.70
2023-05-25T13:12:59.366Z,27.70
2023-05-25T13:15:27.270Z,27.60
2023-05-25T13:17:54.930Z,27.40
2023-05-25T13:20:23.602Z,27.30
2023-05-25T13:22:52.482Z,27.30
2023-05-25T13:25:21.932Z,27.30
2023-05-25T13:27:51.402Z,27.40
2023-05-25T13:30:21.025Z,27.40
2023-05-25T13:32:50.421Z,27.50
2023-05-25T13:35:23.225Z,27.50
2023-05-25T13:37:51.397Z,27.40
2023-05-25T13:40:19.165Z,27.50
2023-05-25T13:42:46.268Z,27.50
2023-05-25T13:45:13.963Z,27.60
2023-05-25T13:47:43.429Z,27.50
2023-05-25T13:50:11.680Z,27.40
2023-05-25T13:52:38.746Z,27.20
2023-05-25T13:55:06.291Z,27.00
2023-05-25T13:57:33.332Z,26.80
2023-05-25T14:00:00.272Z,26.80
2023-05-25T14:02:27.305Z,26.70
2023-05-25T14:04:54.541Z,26.70
2023-05-25T14:07:21.494Z,26.80
2023-05-25T14:09:48.416Z,26.90
2023-05-25T14:12:15.828Z,27.00
2023-05-25T14:14:42.736Z,27.10
2023-05-25T14:17:09.727Z,27.20
2023-05-25T14:19:36.661Z,27.20
2023-05-25T14:22:13.331Z,27.30
2023-05-25T14:24:42.245Z,27.30
2023-05-25T14:27:09.581Z,27.40
2023-05-25T14:29:36.977Z,27.30
2023-05-25T14:32:04.556Z,27.40
2023-05-25T14:34:31.540Z,27.50
2023-05-25T14:36:58.422Z,27.40
2023-05-25T14:39:26.061Z,27.40
2023-05-25T14:41:52.981Z,27.30
2023-05-25T14:44:20.004Z,27.30
2023-05-25T14:46:47.225Z,27.30
2023-05-25T14:49:14.206Z,27.30
2023-05-25T14:51:41.090Z,27.30
2023-05-25T14:54:08.148Z,27.40
2023-05-25T14:56:35.521Z,27.40
2023-05-25T14:59:02.517Z,27.40
2023-05-25T15:01:29.881Z,27.40
2023-05-25T15:03:57.317Z,27.40
2023-05-25T15:06:24.559Z,27.40
2023-05-25T15:08:52.095Z,27.40
2023-05-25T15:11:19.048Z,27.40
2023-05-25T15:13:46.412Z,27.30
2023-05-25T15:16:14.216Z,27.30
2023-05-25T15:18:41.401Z,27.30
2023-05-25T15:21:09.069Z,27.30
2023-05-25T15:23:36.717Z,27.20
2023-05-25T15:26:07.778Z,27.20
2023-05-25T15:28:34.971Z,27.20
2023-05-25T15:31:03.368Z,27.20
2023-05-25T15:33:47.886Z,27.20
2023-05-25T15:36:18.710Z,27.20
2023-05-25T15:38:49.099Z,27.20
2023-05-25T15:41:17.488Z,27.10
2023-05-25T15:43:54.741Z,27.10
2023-05-25T15:46:22.019Z,27.10
2023-05-25T15:48:49.060Z,27.10
2023-05-25T15:51:16.168Z,27.00
2023-05-25T15:53:43.081Z,27.00
2023-05-25T15:56:10.084Z,27.00
2023-05-25T15:58:37.020Z,26.90
2023-05-25T16:01:04.425Z,26.80
2023-05-25T16:03:31.375Z,26.80
2023-05-25T16:05:58.494Z,26.70
2023-05-25T16:08:25.348Z,26.70
2023-05-25T16:10:52.341Z,26.60
2023-05-25T16:13:19.535Z,26.60
2023-05-25T16:15:46.745Z,26.50
2023-05-25T16:18:16.601Z,26.50
2023-05-25T16:20:44.169Z,26.50
2023-05-25T16:23:11.268Z,26.40
2023-05-25T16:25:38.233Z,26.40
2023-05-25T16:28:05.276Z,26.40
2023-05-25T16:30:34.442Z,26.40
2023-05-25T16:33:01.306Z,26.30
2023-05-25T16:35:28.275Z,26.30
2023-05-25T16:37:55.146Z,26.30
2023-05-25T16:40:22.056Z,26.30
2023-05-25T16:42:48.968Z,26.20
2023-05-25T16:45:16.112Z,26.20
2023-05-25T16:47:43.065Z,26.10
2023-05-25T16:50:10.526Z,26.10
2023-05-25T16:52:37.454Z,26.00
2023-05-25T16:55:04.881Z,26.00
2023-05-25T16:57:31.810Z,25.90
2023-05-25T16:59:58.758Z,25.90
2023-05-25T17:02:26.160Z,25.80
2023-05-25T17:04:53.241Z,25.80
2023-05-25T17:07:20.189Z,25.80
2023-05-25T17:09:47.209Z,25.70
2023-05-25T17:12:14.184Z,25.70
2023-05-25T17:14:41.152Z,25.60
2023-05-25T17:17:08.052Z,25.60
2023-05-25T17:19:35.111Z,25.60
2023-05-25T17:22:02.056Z,25.50
2023-05-25T17:24:29.073Z,25.50
2023-05-25T17:26:56.165Z,25.40
2023-05-25T17:29:23.205Z,25.30
2023-05-25T17:31:50.140Z,25.30
2023-05-25T17:34:17.306Z,25.20
2023-05-25T17:36:44.241Z,25.20
2023-05-25T17:39:11.209Z,25.10
2023-05-25T17:41:38.284Z,25.00
2023-05-25T17:44:05.218Z,25.00
2023-05-25T17:46:32.209Z,25.00
2023-05-25T17:48:59.930Z,24.90
2023-05-25T17:51:26.830Z,24.80
2023-05-25T17:53:53.809Z,24.70
2023-05-25T17:56:21.786Z,24.60
2023-05-25T17:58:48.874Z,24.60
2023-05-25T18:01:16.177Z,24.50
2023-05-25T18:03:43.456Z,24.50
2023-05-25T18:06:10.840Z,24.40
2023-05-25T18:08:37.850Z,24.40
2023-05-25T18:11:05.610Z,24.30
2023-05-25T18:13:32.595Z,24.30
2023-05-25T18:15:59.737Z,24.20
2023-05-25T18:18:27.032Z,24.10
2023-05-25T18:20:53.966Z,24.10
2023-05-25T18:23:22.178Z,24.00
2023-05-25T18:25:49.184Z,23.90
2023-05-25T18:28:16.181Z,23.80
2023-05-25T18:30:43.301Z,23.70
2023-05-25T18:33:10.993Z,23.70
2023-05-25T18:35:38.281Z,23.60
2023-05-25T18:38:06.759Z,23.50
2023-05-25T18:40:34.092Z,23.40
2023-05-25T18:43:01.157Z,23.30
2023-05-25T18:45:28.063Z,23.20
2023-05-25T18:47:55.453Z,23.10
2023-05-25T18:50:22.387Z,23.10
2023-05-25T18:52:51.276Z,23.00
2023-05-25T18:55:19.238Z,22.90
2023-05-25T18:57:46.753Z,22.80
2023-05-25T19:00:14.506Z,22.70
2023-05-25T19:02:41.820Z,22.60
2023-05-25T19:05:11.629Z,22.60
2023-05-25T19:07:51.154Z,22.50
2023-05-25T19:10:25.459Z,22.40
2023-05-25T19:12:52.617Z,22.40
2023-05-25T19:15:19.799Z,22.30
2023-05-25T19:17:47.209Z,22.20
2023-05-25T19:20:14.742Z,22.20
2023-05-25T19:22:41.968Z,22.10
2023-05-25T19:25:09.168Z,22.10
2023-05-25T19:27:36.590Z,22.00
2023-05-25T19:30:04.027Z,22.00
2023-05-25T19:32:31.148Z,22.00
2023-05-25T19:34:58.316Z,21.90
2023-05-25T19:37:25.922Z,21.90
2023-05-25T19:39:52.850Z,21.80
2023-05-25T19:42:19.813Z,21.80
2023-05-25T19:44:46.980Z,21.80
2023-05-25T19:47:13.949Z,21.70
2023-05-25T19:49:41.028Z,21.70
2023-05-25T19:52:07.994Z,21.70
2023-05-25T19:54:35.269Z,21.60
2023-05-25T19:57:02.989Z,21.60
2023-05-25T19:59:31.470Z,21.60
2023-05-25T20:01:58.822Z,21.50
2023-05-25T20:04:25.889Z,21.50
2023-05-25T20:06:53.761Z,21.50
2023-05-25T20:09:29.745Z,21.50
2023-05-25T20:12:00.123Z,21.50
2023-05-25T20:14:27.092Z,21.50
2023-05-25T20:16:57.104Z,21.50
2023-05-25T20:19:23.999Z,21.40
2023-05-25T20:21:51.665Z,21.40
2023-05-25T20:24:18.714Z,21.40
2023-05-25T20:26:45.851Z,21.40
2023-05-25T20:29:12.785Z,21.30
2023-05-25T20:31:40.562Z,21.30
2023-05-25T20:34:07.563Z,21.30
2023-05-25T20:36:34.608Z,21.20
2023-05-25T20:39:03.007Z,21.20
2023-05-25T20:41:29.982Z,21.20
2023-05-25T20:43:56.963Z,21.10
2023-05-25T20:46:24.052Z,21.10
2023-05-25T20:48:51.987Z,21.10
2023-05-25T20:51:19.240Z,21.00
2023-05-25T20:53:46.222Z,21.00
2023-05-25T20:56:13.146Z,21.00
2023-05-25T20:58:40.959Z,21.00
2023-05-25T21:01:08.331Z,20.90
2023-05-25T21:03:35.502Z,20.90
2023-05-25T21:06:02.647Z,20.90
2023-05-25T21:08:29.656Z,20.80
2023-05-25T21:10:56.991Z,20.70
2023-05-25T21:13:23.873Z,20.70
2023-05-25T21:15:50.926Z,20.60
2023-05-25T21:18:17.879Z,20.60
2023-05-25T21:20:44.903Z,20.50
2023-05-25T21:23:11.868Z,20.50
2023-05-25T21:25:38.796Z,20.40
2023-05-25T21:28:06.813Z,20.40
2023-05-25T21:30:34.045Z,20.40
2023-05-25T21:33:00.943Z,20.30
2023-05-25T21:35:27.949Z,20.30
2023-05-25T21:37:55.098Z,20.20
2023-05-25T21:40:22.103Z,20.20
2023-05-25T21:42:51.078Z,20.20
2023-05-25T21:45:18.491Z,20.10
2023-05-25T21:47:45.457Z,20.10
2023-05-25T21:50:12.518Z,20.00
2023-05-25T21:52:39.747Z,20.00
2023-05-25T21:55:07.071Z,20.00
2023-05-25T21:57:33.961Z,20.00
2023-05-25T22:00:01.069Z,20.00
2023-05-25T22:02:28.061Z,20.00
2023-05-25T22:04:55.088Z,19.90
2023-05-25T22:07:22.117Z,19.90
2023-05-25T22:09:49.116Z,19.80
2023-05-25T22:12:16.077Z,19.80
2023-05-25T22:14:43.158Z,19.80
2023-05-25T22:17:10.405Z,19.70
2023-05-25T22:19:37.555Z,19.70
2023-05-25T22:22:04.936Z,19.70
2023-05-25T22:24:31.977Z,19.60
2023-05-25T22:26:58.867Z,19.60
2023-05-25T22:29:26.158Z,19.50
2023-05-25T22:31:53.109Z,19.50
2023-05-25T22:34:20.812Z,19.50
2023-05-25T22:36:47.808Z,19.50
2023-05-25T22:39:14.822Z,19.50
2023-05-25T22:41:41.780Z,19.50
2023-05-25T22:44:08.772Z,19.50
2023-05-25T22:46:35.982Z,19.40
2023-05-25T22:49:03.017Z,19.40
2023-05-25T22:51:30.064Z,19.40
2023-05-25T22:53:57.077Z,19.40
2023-05-25T22:56:24.133Z,19.30
2023-05-25T22:58:51.155Z,19.30
2023-05-25T23:01:18.140Z,19.30
2023-05-25T23:03:45.264Z,19.30
2023-05-25T23:06:12.307Z,19.30
2023-05-25T23:08:39.478Z,19.30
2023-05-25T23:11:06.483Z,19.20
2023-05-25T23:13:33.549Z,19.20
2023-05-25T23:16:00.505Z,19.20
2023-05-25T23:18:27.531Z,19.20
2023-05-25T23:20:54.530Z,19.20
2023-05-25T23:23:21.535Z,19.20
2023-05-25T23:25:48.479Z,19.20
2023-05-25T23:28:15.504Z,19.20
2023-05-25T23:30:42.464Z,19.10
2023-05-25T23:33:10.474Z,19.10
2023-05-25T23:35:37.596Z,19.10
2023-05-25T23:38:05.625Z,19.10
2023-05-25T23:40:32.602Z,19.10
2023-05-25T23:42:59.661Z,19.10
2023-05-25T23:45:27.272Z,19.10
2023-05-25T23:47:54.510Z,19.10
2023-05-25T23:50:21.845Z,19.00
2023-05-25T23:52:48.810Z,19.00
2023-05-25T23:55:15.738Z,19.00
2023-05-25T23:57:42.752Z,19.00
